sensor_id;sensor_type;location;lat;lon;timestamp;pressure;altitude;pressure_sealevel;temperature;humidity
71795;BME280;59641;45.188;5.712;2023-05-08T00:01:56;99616.44;;;20.04;57.35
71795;BME280;59641;45.188;5.712;2023-05-08T00:04:22;99618.88;;;20.05;57.37
71795;BME280;59641;45.188;5.712;2023-05-08T00:06:47;99616.16;;;20.05;56.63
71795;BME280;59641;45.188;5.712;2023-05-08T00:09:13;99611.00;;;20.04;57.03
71795;BME280;59641;45.188;5.712;2023-05-08T00:11:38;99609.06;;;20.04;57.15
71795;BME280;59641;45.188;5.712;2023-05-08T00:14:03;99606.34;;;20.04;57.34
71795;BME280;59641;45.188;5.712;2023-05-08T00:16:29;99609.06;;;20.04;56.96
71795;BME280;59641;45.188;5.712;2023-05-08T00:18:55;99603.09;;;20.02;56.97
71795;BME280;59641;45.188;5.712;2023-05-08T00:21:20;99606.06;;;20.00;56.84
71795;BME280;59641;45.188;5.712;2023-05-08T00:23:46;99606.63;;;19.97;57.33
71795;BME280;59641;45.188;5.712;2023-05-08T00:26:11;99607.44;;;19.98;57.39
71795;BME280;59641;45.188;5.712;2023-05-08T00:28:36;99604.72;;;19.98;57.40
71795;BME280;59641;45.188;5.712;2023-05-08T00:31:02;99604.16;;;20.01;57.27
71795;BME280;59641;45.188;5.712;2023-05-08T00:33:27;99603.91;;;20.03;57.35
71795;BME280;59641;45.188;5.712;2023-05-08T00:36:03;99602.81;;;20.04;57.32
71795;BME280;59641;45.188;5.712;2023-05-08T00:38:30;99598.44;;;20.03;57.12
71795;BME280;59641;45.188;5.712;2023-05-08T00:40:55;99596.28;;;19.99;57.21
71795;BME280;59641;45.188;5.712;2023-05-08T00:43:21;99589.19;;;19.98;57.19
71795;BME280;59641;45.188;5.712;2023-05-08T00:45:50;99591.09;;;19.98;57.39
71795;BME280;59641;45.188;5.712;2023-05-08T00:48:16;99593.56;;;19.99;57.48
71795;BME280;59641;45.188;5.712;2023-05-08T00:50:42;99595.75;;;19.97;57.13
71795;BME280;59641;45.188;5.712;2023-05-08T00:53:07;99595.19;;;20.00;57.23
71795;BME280;59641;45.188;5.712;2023-05-08T00:55:32;99582.66;;;19.99;56.99
71795;BME280;59641;45.188;5.712;2023-05-08T00:57:58;99588.13;;;19.99;57.46
71795;BME280;59641;45.188;5.712;2023-05-08T01:00:24;99585.09;;;20.01;57.27
71795;BME280;59641;45.188;5.712;2023-05-08T01:02:49;99587.81;;;20.01;57.70
71795;BME280;59641;45.188;5.712;2023-05-08T01:05:14;99585.94;;;20.02;57.52
71795;BME280;59641;45.188;5.712;2023-05-08T01:07:40;99585.94;;;20.02;57.53
71795;BME280;59641;45.188;5.712;2023-05-08T01:10:06;99589.47;;;20.02;57.23
71795;BME280;59641;45.188;5.712;2023-05-08T01:15:28;99585.09;;;20.01;57.70
71795;BME280;59641;45.188;5.712;2023-05-08T01:18:06;99586.19;;;20.00;57.66
71795;BME280;59641;45.188;5.712;2023-05-08T01:20:54;99587.00;;;20.00;57.21
71795;BME280;59641;45.188;5.712;2023-05-08T01:26:36;99587.81;;;20.01;56.85
71795;BME280;59641;45.188;5.712;2023-05-08T01:29:34;99585.41;;;19.99;57.16
71795;BME280;59641;45.188;5.712;2023-05-08T01:32:09;99584.03;;;19.97;57.36
71795;BME280;59641;45.188;5.712;2023-05-08T01:37:41;99589.22;;;19.93;57.32
71795;BME280;59641;45.188;5.712;2023-05-08T01:40:31;99587.03;;;19.90;57.21
71795;BME280;59641;45.188;5.712;2023-05-08T01:43:13;99586.50;;;19.88;57.26
71795;BME280;59641;45.188;5.712;2023-05-08T01:45:47;99587.88;;;19.86;57.41
71795;BME280;59641;45.188;5.712;2023-05-08T01:48:23;99591.41;;;19.86;57.88
71795;BME280;59641;45.188;5.712;2023-05-08T01:50:55;99583.53;;;19.85;57.66
71795;BME280;59641;45.188;5.712;2023-05-08T01:53:25;99582.69;;;19.84;57.59
71795;BME280;59641;45.188;5.712;2023-05-08T01:55:55;99582.16;;;19.82;57.65
71795;BME280;59641;45.188;5.712;2023-05-08T01:58:23;99571.28;;;19.82;57.88
71795;BME280;59641;45.188;5.712;2023-05-08T02:00:49;99576.44;;;19.84;57.72
71795;BME280;59641;45.188;5.712;2023-05-08T02:03:16;99578.34;;;19.83;57.88
71795;BME280;59641;45.188;5.712;2023-05-08T02:05:43;99576.72;;;19.82;57.26
71795;BME280;59641;45.188;5.712;2023-05-08T02:08:11;99575.38;;;19.79;57.60
71795;BME280;59641;45.188;5.712;2023-05-08T02:10:38;99568.53;;;19.77;57.72
71795;BME280;59641;45.188;5.712;2023-05-08T02:13:06;99574.00;;;19.77;57.42
71795;BME280;59641;45.188;5.712;2023-05-08T02:15:34;99577.81;;;19.76;57.93
71795;BME280;59641;45.188;5.712;2023-05-08T02:18:02;99573.47;;;19.75;57.67
71795;BME280;59641;45.188;5.712;2023-05-08T02:20:30;99576.47;;;19.73;57.81
71795;BME280;59641;45.188;5.712;2023-05-08T02:22:56;99570.22;;;19.73;57.44
71795;BME280;59641;45.188;5.712;2023-05-08T02:25:23;99569.66;;;19.71;57.90
71795;BME280;59641;45.188;5.712;2023-05-08T02:27:49;99569.66;;;19.71;57.76
71795;BME280;59641;45.188;5.712;2023-05-08T02:30:18;99576.19;;;19.70;58.18
71795;BME280;59641;45.188;5.712;2023-05-08T02:32:48;99575.91;;;19.71;57.95
71795;BME280;59641;45.188;5.712;2023-05-08T02:35:16;99577.84;;;19.71;57.82
71795;BME280;59641;45.188;5.712;2023-05-08T02:37:45;99575.09;;;19.71;58.00
71795;BME280;59641;45.188;5.712;2023-05-08T02:40:11;99578.09;;;19.69;58.06
71795;BME280;59641;45.188;5.712;2023-05-08T02:42:38;99576.19;;;19.70;57.94
71795;BME280;59641;45.188;5.712;2023-05-08T02:45:04;99579.75;;;19.70;58.21
71795;BME280;59641;45.188;5.712;2023-05-08T02:47:41;99572.94;;;19.73;57.87
71795;BME280;59641;45.188;5.712;2023-05-08T02:52:47;99571.28;;;19.72;57.86
71795;BME280;59641;45.188;5.712;2023-05-08T02:55:38;99571.81;;;19.74;57.91
71795;BME280;59641;45.188;5.712;2023-05-08T02:58:13;99565.56;;;19.73;57.91
71795;BME280;59641;45.188;5.712;2023-05-08T03:01:03;99574.56;;;19.74;57.66
71795;BME280;59641;45.188;5.712;2023-05-08T03:03:40;99562.03;;;19.73;58.10
71795;BME280;59641;45.188;5.712;2023-05-08T03:06:11;99570.22;;;19.73;57.91
71795;BME280;59641;45.188;5.712;2023-05-08T03:08:39;99565.03;;;19.71;57.91
71795;BME280;59641;45.188;5.712;2023-05-08T03:11:09;99572.13;;;19.72;57.68
71795;BME280;59641;45.188;5.712;2023-05-08T03:13:38;99572.13;;;19.72;57.87
71795;BME280;59641;45.188;5.712;2023-05-08T03:16:10;99561.22;;;19.72;57.58
71795;BME280;59641;45.188;5.712;2023-05-08T03:18:44;99561.22;;;19.72;57.32
71795;BME280;59641;45.188;5.712;2023-05-08T03:21:13;99562.28;;;19.66;57.60
71795;BME280;59641;45.188;5.712;2023-05-08T03:23:42;99559.56;;;19.61;57.42
71795;BME280;59641;45.188;5.712;2023-05-08T03:26:09;99550.88;;;19.54;57.77
71795;BME280;59641;45.188;5.712;2023-05-08T03:28:35;99552.25;;;19.51;57.91
71795;BME280;59641;45.188;5.712;2023-05-08T03:31:04;99558.50;;;19.52;57.99
71795;BME280;59641;45.188;5.712;2023-05-08T03:33:29;99561.22;;;19.52;57.82
71795;BME280;59641;45.188;5.712;2023-05-08T03:35:56;99560.66;;;19.50;57.77
71795;BME280;59641;45.188;5.712;2023-05-08T03:38:22;99547.63;;;19.47;58.21
71795;BME280;59641;45.188;5.712;2023-05-08T03:40:48;99555.78;;;19.47;57.86
71795;BME280;59641;45.188;5.712;2023-05-08T03:43:14;99555.25;;;19.45;58.08
71795;BME280;59641;45.188;5.712;2023-05-08T03:45:40;99554.44;;;19.44;58.31
71795;BME280;59641;45.188;5.712;2023-05-08T03:48:07;99564.22;;;19.45;58.04
71795;BME280;59641;45.188;5.712;2023-05-08T03:50:35;99568.03;;;19.44;58.09
71795;BME280;59641;45.188;5.712;2023-05-08T03:53:01;99568.28;;;19.43;58.25
71795;BME280;59641;45.188;5.712;2023-05-08T03:55:27;99564.75;;;19.42;58.31
71795;BME280;59641;45.188;5.712;2023-05-08T03:58:02;99562.03;;;19.42;58.15
71795;BME280;59641;45.188;5.712;2023-05-08T04:03:24;99562.31;;;19.41;58.01
71795;BME280;59641;45.188;5.712;2023-05-08T04:06:11;99564.22;;;19.40;57.91
71795;BME280;59641;45.188;5.712;2023-05-08T04:08:48;99566.94;;;19.40;58.05
71795;BME280;59641;45.188;5.712;2023-05-08T04:11:25;99558.50;;;19.42;58.16
71795;BME280;59641;45.188;5.712;2023-05-08T04:13:57;99566.13;;;19.45;58.23
71795;BME280;59641;45.188;5.712;2023-05-08T04:16:26;99558.78;;;19.45;57.92
71795;BME280;59641;45.188;5.712;2023-05-08T04:19:00;99564.75;;;19.47;57.75
71795;BME280;59641;45.188;5.712;2023-05-08T04:21:28;99570.19;;;19.47;58.08
71795;BME280;59641;45.188;5.712;2023-05-08T04:23:55;99565.56;;;19.48;57.95
71795;BME280;59641;45.188;5.712;2023-05-08T04:26:21;99579.16;;;19.48;57.72
71795;BME280;59641;45.188;5.712;2023-05-08T04:28:47;99571.84;;;19.48;57.96
71795;BME280;59641;45.188;5.712;2023-05-08T04:31:14;99569.13;;;19.48;57.88
71795;BME280;59641;45.188;5.712;2023-05-08T04:33:42;99567.47;;;19.47;57.60
71795;BME280;59641;45.188;5.712;2023-05-08T04:36:12;99564.50;;;19.49;57.69
71795;BME280;59641;45.188;5.712;2023-05-08T04:38:38;99562.59;;;19.49;57.53
71795;BME280;59641;45.188;5.712;2023-05-08T04:41:04;99574.28;;;19.50;57.56
71795;BME280;59641;45.188;5.712;2023-05-08T04:43:29;99569.66;;;19.50;57.43
71795;BME280;59641;45.188;5.712;2023-05-08T04:45:55;99568.84;;;19.50;57.63
71795;BME280;59641;45.188;5.712;2023-05-08T04:48:20;99564.50;;;19.49;57.70
71795;BME280;59641;45.188;5.712;2023-05-08T04:50:45;99563.69;;;19.48;57.48
71795;BME280;59641;45.188;5.712;2023-05-08T04:53:11;99567.22;;;19.49;57.59
71795;BME280;59641;45.188;5.712;2023-05-08T04:55:36;99574.28;;;19.50;57.62
71795;BME280;59641;45.188;5.712;2023-05-08T04:58:02;99568.03;;;19.49;57.74
71795;BME280;59641;45.188;5.712;2023-05-08T05:00:27;99566.13;;;19.50;57.41
71795;BME280;59641;45.188;5.712;2023-05-08T05:02:52;99572.91;;;19.52;57.69
71795;BME280;59641;45.188;5.712;2023-05-08T05:05:18;99573.72;;;19.53;57.53
71795;BME280;59641;45.188;5.712;2023-05-08T05:07:43;99576.44;;;19.53;57.22
71795;BME280;59641;45.188;5.712;2023-05-08T05:10:09;99576.19;;;19.49;57.32
71795;BME280;59641;45.188;5.712;2023-05-08T05:12:34;99575.38;;;19.49;57.71
71795;BME280;59641;45.188;5.712;2023-05-08T05:14:59;99581.91;;;19.48;57.56
71795;BME280;59641;45.188;5.712;2023-05-08T05:17:25;99578.09;;;19.49;57.81
71795;BME280;59641;45.188;5.712;2023-05-08T05:19:51;99583.25;;;19.45;57.46
71795;BME280;59641;45.188;5.712;2023-05-08T05:22:17;99584.91;;;19.41;57.58
71795;BME280;59641;45.188;5.712;2023-05-08T05:24:42;99578.38;;;19.42;57.58
71795;BME280;59641;45.188;5.712;2023-05-08T05:27:07;99577.56;;;19.42;57.86
71795;BME280;59641;45.188;5.712;2023-05-08T05:29:33;99577.00;;;19.40;57.60
71795;BME280;59641;45.188;5.712;2023-05-08T05:31:58;99582.72;;;19.38;57.82
71795;BME280;59641;45.188;5.712;2023-05-08T05:34:23;99584.38;;;19.39;57.91
71795;BME280;59641;45.188;5.712;2023-05-08T05:36:49;99596.88;;;19.40;58.10
71795;BME280;59641;45.188;5.712;2023-05-08T05:39:14;99606.94;;;19.40;58.07
71795;BME280;59641;45.188;5.712;2023-05-08T05:41:39;99602.06;;;19.42;57.95
71795;BME280;59641;45.188;5.712;2023-05-08T05:44:08;99597.16;;;19.44;57.92
71795;BME280;59641;45.188;5.712;2023-05-08T05:46:33;99600.41;;;19.46;58.13
71795;BME280;59641;45.188;5.712;2023-05-08T05:48:59;99600.13;;;19.47;58.17
71795;BME280;59641;45.188;5.712;2023-05-08T05:51:24;99599.59;;;19.50;57.58
71795;BME280;59641;45.188;5.712;2023-05-08T05:53:50;99597.69;;;19.51;57.88
71795;BME280;59641;45.188;5.712;2023-05-08T05:56:15;99598.22;;;19.53;57.77
71795;BME280;59641;45.188;5.712;2023-05-08T05:58:40;99600.69;;;19.54;57.53
71795;BME280;59641;45.188;5.712;2023-05-08T06:01:09;99594.97;;;19.56;57.88
71795;BME280;59641;45.188;5.712;2023-05-08T06:03:35;99610.75;;;19.59;57.50
71795;BME280;59641;45.188;5.712;2023-05-08T06:06:00;99614.03;;;19.61;57.40
71795;BME280;59641;45.188;5.712;2023-05-08T06:08:25;99613.22;;;19.61;57.71
71795;BME280;59641;45.188;5.712;2023-05-08T06:10:51;99616.75;;;19.61;57.25
71795;BME280;59641;45.188;5.712;2023-05-08T06:13:16;99620.81;;;19.64;57.31
71795;BME280;59641;45.188;5.712;2023-05-08T06:15:42;99613.75;;;19.63;57.42
71795;BME280;59641;45.188;5.712;2023-05-08T06:18:07;99614.28;;;19.65;57.20
71795;BME280;59641;45.188;5.712;2023-05-08T06:20:32;99608.56;;;19.66;57.56
71795;BME280;59641;45.188;5.712;2023-05-08T06:22:58;99618.13;;;19.69;57.67
71795;BME280;59641;45.188;5.712;2023-05-08T06:25:23;99611.84;;;19.73;57.41
71795;BME280;59641;45.188;5.712;2023-05-08T06:27:49;99612.66;;;19.74;57.11
71795;BME280;59641;45.188;5.712;2023-05-08T06:30:15;99614.56;;;19.73;57.26
71795;BME280;59641;45.188;5.712;2023-05-08T06:32:40;99605.59;;;19.73;57.40
71795;BME280;59641;45.188;5.712;2023-05-08T06:35:06;99611.84;;;19.73;57.03
71795;BME280;59641;45.188;5.712;2023-05-08T06:37:31;99609.41;;;19.72;57.34
71795;BME280;59641;45.188;5.712;2023-05-08T06:39:57;99599.59;;;19.71;57.08
71795;BME280;59641;45.188;5.712;2023-05-08T06:42:22;99603.69;;;19.73;57.67
71795;BME280;59641;45.188;5.712;2023-05-08T06:44:47;99597.97;;;19.75;57.32
71795;BME280;59641;45.188;5.712;2023-05-08T06:47:14;99594.69;;;19.78;57.27
71795;BME280;59641;45.188;5.712;2023-05-08T06:49:40;99595.25;;;19.80;57.48
71795;BME280;59641;45.188;5.712;2023-05-08T06:52:05;99599.59;;;19.81;56.93
71795;BME280;59641;45.188;5.712;2023-05-08T06:54:31;99594.69;;;19.83;57.02
71795;BME280;59641;45.188;5.712;2023-05-08T06:56:56;99602.03;;;19.83;57.34
71795;BME280;59641;45.188;5.712;2023-05-08T06:59:21;99605.31;;;19.85;57.30
71795;BME280;59641;45.188;5.712;2023-05-08T07:01:49;99604.75;;;19.88;57.33
71795;BME280;59641;45.188;5.712;2023-05-08T07:04:15;99598.50;;;19.82;57.30
71795;BME280;59641;45.188;5.712;2023-05-08T07:06:40;99606.38;;;19.84;57.44
71795;BME280;59641;45.188;5.712;2023-05-08T07:09:06;99599.88;;;19.85;57.54
71795;BME280;59641;45.188;5.712;2023-05-08T07:11:31;99606.66;;;19.87;57.49
71795;BME280;59641;45.188;5.712;2023-05-08T07:13:56;99607.75;;;19.86;57.34
71795;BME280;59641;45.188;5.712;2023-05-08T07:16:22;99606.13;;;19.85;57.38
71795;BME280;59641;45.188;5.712;2023-05-08T07:18:48;99599.03;;;19.84;57.75
71795;BME280;59641;45.188;5.712;2023-05-08T07:21:13;99602.03;;;19.88;57.74
71795;BME280;59641;45.188;5.712;2023-05-08T07:23:40;99594.41;;;19.90;57.74
71795;BME280;59641;45.188;5.712;2023-05-08T07:26:05;99601.75;;;19.94;57.49
71795;BME280;59641;45.188;5.712;2023-05-08T07:28:32;99601.19;;;19.97;57.78
71795;BME280;59641;45.188;5.712;2023-05-08T07:30:58;99599.56;;;20.02;57.33
71795;BME280;59641;45.188;5.712;2023-05-08T07:33:23;99607.72;;;20.07;57.64
71795;BME280;59641;45.188;5.712;2023-05-08T07:35:48;99601.97;;;20.08;57.59
71795;BME280;59641;45.188;5.712;2023-05-08T07:38:14;99604.97;;;20.12;57.51
71795;BME280;59641;45.188;5.712;2023-05-08T07:40:39;99604.41;;;20.15;57.51
71795;BME280;59641;45.188;5.712;2023-05-08T07:43:04;99601.16;;;20.18;57.03
71795;BME280;59641;45.188;5.712;2023-05-08T07:45:30;99598.44;;;20.18;57.00
71795;BME280;59641;45.188;5.712;2023-05-08T07:47:56;99596.22;;;20.20;57.45
71795;BME280;59641;45.188;5.712;2023-05-08T07:50:23;99598.91;;;20.25;57.54
71795;BME280;59641;45.188;5.712;2023-05-08T07:52:49;99588.56;;;20.27;57.26
71795;BME280;59641;45.188;5.712;2023-05-08T07:55:15;99589.63;;;20.36;57.40
71795;BME280;59641;45.188;5.712;2023-05-08T07:57:42;99591.50;;;20.41;57.02
71795;BME280;59641;45.188;5.712;2023-05-08T08:00:10;99591.78;;;20.45;56.73
71795;BME280;59641;45.188;5.712;2023-05-08T08:02:35;99595.56;;;20.49;56.67
71795;BME280;59641;45.188;5.712;2023-05-08T08:05:01;99590.38;;;20.52;56.49
71795;BME280;59641;45.188;5.712;2023-05-08T08:07:26;99594.19;;;20.56;56.31
71795;BME280;59641;45.188;5.712;2023-05-08T08:09:52;99584.66;;;20.59;56.16
71795;BME280;59641;45.188;5.712;2023-05-08T08:12:17;99584.34;;;20.60;55.89
71795;BME280;59641;45.188;5.712;2023-05-08T08:14:43;99585.69;;;20.63;56.18
71795;BME280;59641;45.188;5.712;2023-05-08T08:17:08;99578.06;;;20.65;55.94
71795;BME280;59641;45.188;5.712;2023-05-08T08:19:33;99580.22;;;20.68;55.95
71795;BME280;59641;45.188;5.712;2023-05-08T08:21:59;99578.31;;;20.69;55.92
71795;BME280;59641;45.188;5.712;2023-05-08T08:24:24;99579.13;;;20.69;55.81
71795;BME280;59641;45.188;5.712;2023-05-08T08:26:50;99574.22;;;20.71;56.10
71795;BME280;59641;45.188;5.712;2023-05-08T08:29:15;99575.56;;;20.74;55.92
71795;BME280;59641;45.188;5.712;2023-05-08T08:31:41;99574.19;;;20.76;55.97
71795;BME280;59641;45.188;5.712;2023-05-08T08:34:06;99580.19;;;20.78;55.85
71795;BME280;59641;45.188;5.712;2023-05-08T08:36:32;99570.88;;;20.79;55.64
71795;BME280;59641;45.188;5.712;2023-05-08T08:38:58;99567.88;;;20.81;55.54
71795;BME280;59641;45.188;5.712;2023-05-08T08:41:23;99571.66;;;20.85;55.46
71795;BME280;59641;45.188;5.712;2023-05-08T08:43:49;99565.66;;;20.88;55.50
71795;BME280;59641;45.188;5.712;2023-05-08T08:46:16;99559.63;;;20.91;55.19
71795;BME280;59641;45.188;5.712;2023-05-08T08:48:45;99561.78;;;20.94;55.02
71795;BME280;59641;45.188;5.712;2023-05-08T08:51:21;99555.78;;;20.97;54.82
71795;BME280;59641;45.188;5.712;2023-05-08T08:53:51;99556.81;;;21.01;54.58
71795;BME280;59641;45.188;5.712;2023-05-08T08:56:20;99563.63;;;21.04;54.33
71795;BME280;59641;45.188;5.712;2023-05-08T08:58:53;99571.25;;;21.07;54.21
71795;BME280;59641;45.188;5.712;2023-05-08T09:01:19;99559.78;;;21.10;54.09
71795;BME280;59641;45.188;5.712;2023-05-08T09:03:46;99570.63;;;21.15;53.91
71795;BME280;59641;45.188;5.712;2023-05-08T09:06:12;99560.78;;;21.19;53.91
71795;BME280;59641;45.188;5.712;2023-05-08T09:08:39;99561.06;;;21.18;53.56
71795;BME280;59641;45.188;5.712;2023-05-08T09:11:05;99553.69;;;21.18;53.45
71795;BME280;59641;45.188;5.712;2023-05-08T09:13:30;99559.69;;;21.20;53.52
71795;BME280;59641;45.188;5.712;2023-05-08T09:15:57;99565.91;;;21.26;53.54
71795;BME280;59641;45.188;5.712;2023-05-08T09:18:22;99574.06;;;21.31;53.54
71795;BME280;59641;45.188;5.712;2023-05-08T09:20:49;99579.75;;;21.35;53.54
71795;BME280;59641;45.188;5.712;2023-05-08T09:23:15;99569.13;;;21.33;53.43
71795;BME280;59641;45.188;5.712;2023-05-08T09:25:46;99580.03;;;21.33;53.41
71795;BME280;59641;45.188;5.712;2023-05-08T09:33:18;99582.50;;;21.35;52.96
71795;BME280;59641;45.188;5.712;2023-05-08T09:35:43;99587.13;;;21.34;53.08
71795;BME280;59641;45.188;5.712;2023-05-08T09:38:39;99588.47;;;21.37;53.33
71795;BME280;59641;45.188;5.712;2023-05-08T09:43:31;99587.13;;;21.39;52.73
71795;BME280;59641;45.188;5.712;2023-05-08T09:45:57;99594.19;;;21.40;52.91
71795;BME280;59641;45.188;5.712;2023-05-08T09:48:37;99591.72;;;21.44;52.93
71795;BME280;59641;45.188;5.712;2023-05-08T09:51:06;99599.09;;;21.43;52.73
71795;BME280;59641;45.188;5.712;2023-05-08T09:53:32;99595.53;;;21.43;52.68
71795;BME280;59641;45.188;5.712;2023-05-08T09:55:57;99596.06;;;21.45;52.53
71795;BME280;59641;45.188;5.712;2023-05-08T09:58:22;99597.94;;;21.49;52.70
71795;BME280;59641;45.188;5.712;2023-05-08T10:00:49;99596.56;;;21.52;52.64
71795;BME280;59641;45.188;5.712;2023-05-08T10:03:14;99599.78;;;21.59;52.79
71795;BME280;59641;45.188;5.712;2023-05-08T10:05:39;99604.91;;;21.66;52.42
71795;BME280;59641;45.188;5.712;2023-05-08T10:08:20;99606.50;;;21.72;52.23
71795;BME280;59641;45.188;5.712;2023-05-08T10:10:46;99599.13;;;21.73;52.05
71795;BME280;59641;45.188;5.712;2023-05-08T10:13:11;99596.91;;;21.75;51.95
71795;BME280;59641;45.188;5.712;2023-05-08T10:15:39;99602.06;;;21.76;51.89
71795;BME280;59641;45.188;5.712;2023-05-08T10:18:06;99594.94;;;21.80;52.02
71795;BME280;59641;45.188;5.712;2023-05-08T10:20:34;99597.63;;;21.85;52.08
71795;BME280;59641;45.188;5.712;2023-05-08T10:23:00;99588.84;;;21.88;51.94
71795;BME280;59641;45.188;5.712;2023-05-08T10:25:32;99597.28;;;21.92;51.77
71795;BME280;59641;45.188;5.712;2023-05-08T10:28:18;99587.91;;;21.98;51.81
71795;BME280;59641;45.188;5.712;2023-05-08T10:30:48;99597.16;;;22.02;51.92
71795;BME280;59641;45.188;5.712;2023-05-08T10:33:19;99593.84;;;22.05;51.36
71795;BME280;59641;45.188;5.712;2023-05-08T10:35:45;99605.81;;;22.09;51.70
71795;BME280;59641;45.188;5.712;2023-05-08T10:38:11;99604.44;;;22.12;51.09
71795;BME280;59641;45.188;5.712;2023-05-08T10:40:39;99598.91;;;22.17;51.14
71795;BME280;59641;45.188;5.712;2023-05-08T10:43:06;99601.34;;;22.19;51.15
71795;BME280;59641;45.188;5.712;2023-05-08T10:45:33;99590.41;;;22.24;50.75
71795;BME280;59641;45.188;5.712;2023-05-08T10:56:04;99584.09;;;22.47;49.91
71795;BME280;59641;45.188;5.712;2023-05-08T10:58:35;99578.34;;;22.49;50.27
71795;BME280;59641;45.188;5.712;2023-05-08T11:03:38;99575.81;;;22.52;50.01
71795;BME280;59641;45.188;5.712;2023-05-08T11:06:05;99573.38;;;22.51;49.60
71795;BME280;59641;45.188;5.712;2023-05-08T11:08:31;99567.34;;;22.54;49.67
71795;BME280;59641;45.188;5.712;2023-05-08T11:11:01;99569.47;;;22.57;49.72
71795;BME280;59641;45.188;5.712;2023-05-08T11:13:37;99560.97;;;22.59;49.91
71795;BME280;59641;45.188;5.712;2023-05-08T11:16:05;99555.50;;;22.59;49.82
71795;BME280;59641;45.188;5.712;2023-05-08T11:18:31;99559.06;;;22.59;49.74
71795;BME280;59641;45.188;5.712;2023-05-08T11:20:57;99551.94;;;22.58;49.76
71795;BME280;59641;45.188;5.712;2023-05-08T11:23:27;99556.31;;;22.59;49.72
71795;BME280;59641;45.188;5.712;2023-05-08T11:26:03;99552.78;;;22.59;49.97
71795;BME280;59641;45.188;5.712;2023-05-08T11:28:37;99542.72;;;22.54;49.75
71795;BME280;59641;45.188;5.712;2023-05-08T11:31:04;99542.47;;;22.50;50.38
71795;BME280;59641;45.188;5.712;2023-05-08T11:33:34;99546.03;;;22.51;50.08
71795;BME280;59641;45.188;5.712;2023-05-08T11:36:15;99559.19;;;22.49;50.14
71795;BME280;59641;45.188;5.712;2023-05-08T11:38:42;99552.69;;;22.45;50.32
71795;BME280;59641;45.188;5.712;2023-05-08T11:41:20;99554.63;;;22.44;50.38
71795;BME280;59641;45.188;5.712;2023-05-08T11:44:02;99561.69;;;22.45;50.68
71795;BME280;59641;45.188;5.712;2023-05-08T11:46:52;99561.69;;;22.45;50.90
71795;BME280;59641;45.188;5.712;2023-05-08T11:49:22;99561.69;;;22.45;51.12
71795;BME280;59641;45.188;5.712;2023-05-08T11:51:49;99561.41;;;22.47;50.90
71795;BME280;59641;45.188;5.712;2023-05-08T11:54:19;99557.56;;;22.48;50.89
71795;BME280;59641;45.188;5.712;2023-05-08T11:56:46;99556.50;;;22.44;50.70
71795;BME280;59641;45.188;5.712;2023-05-08T11:59:12;99552.16;;;22.43;50.85
71795;BME280;59641;45.188;5.712;2023-05-08T12:01:37;99555.50;;;22.40;51.00
71795;BME280;59641;45.188;5.712;2023-05-08T12:04:11;99555.78;;;22.38;51.06
71795;BME280;59641;45.188;5.712;2023-05-08T12:06:38;99558.78;;;22.37;51.17
71795;BME280;59641;45.188;5.712;2023-05-08T12:09:14;99551.91;;;22.39;51.14
71795;BME280;59641;45.188;5.712;2023-05-08T12:11:41;99553.31;;;22.37;51.15
71795;BME280;59641;45.188;5.712;2023-05-08T12:14:08;99544.03;;;22.38;51.28
71795;BME280;59641;45.188;5.712;2023-05-08T12:16:38;99543.72;;;22.39;51.01
71795;BME280;59641;45.188;5.712;2023-05-08T12:19:08;99535.47;;;22.44;50.96
71795;BME280;59641;45.188;5.712;2023-05-08T12:21:34;99541.44;;;22.46;50.88
71795;BME280;59641;45.188;5.712;2023-05-08T12:24:00;99540.06;;;22.49;50.80
71795;BME280;59641;45.188;5.712;2023-05-08T12:26:25;99548.19;;;22.54;50.95
71795;BME280;59641;45.188;5.712;2023-05-08T12:28:54;99549.72;;;22.60;50.86
71795;BME280;59641;45.188;5.712;2023-05-08T12:31:20;99546.09;;;22.65;50.76
71795;BME280;59641;45.188;5.712;2023-05-08T12:33:47;99541.16;;;22.67;50.50
71795;BME280;59641;45.188;5.712;2023-05-08T12:36:12;99548.78;;;22.70;50.87
71795;BME280;59641;45.188;5.712;2023-05-08T12:38:38;99537.53;;;22.71;50.40
71795;BME280;59641;45.188;5.712;2023-05-08T12:41:03;99542.41;;;22.74;50.28
71795;BME280;59641;45.188;5.712;2023-05-08T12:43:34;99536.88;;;22.80;50.36
71795;BME280;59641;45.188;5.712;2023-05-08T12:46:00;99526.44;;;22.82;50.12
71795;BME280;59641;45.188;5.712;2023-05-08T12:48:26;99520.69;;;22.83;50.21
71795;BME280;59641;45.188;5.712;2023-05-08T12:50:53;99516.53;;;22.86;50.08
71795;BME280;59641;45.188;5.712;2023-05-08T12:53:20;99517.56;;;22.90;50.14
71795;BME280;59641;45.188;5.712;2023-05-08T12:55:54;99519.19;;;22.91;49.92
71795;BME280;59641;45.188;5.712;2023-05-08T12:58:24;99516.16;;;22.92;50.04
71795;BME280;59641;45.188;5.712;2023-05-08T13:00:51;99519.72;;;22.93;49.83
71795;BME280;59641;45.188;5.712;2023-05-08T13:03:28;99512.03;;;22.95;49.59
71795;BME280;59641;45.188;5.712;2023-05-08T13:05:55;99512.81;;;22.95;49.85
71795;BME280;59641;45.188;5.712;2023-05-08T13:08:31;99517.44;;;23.00;49.71
71795;BME280;59641;45.188;5.712;2023-05-08T13:10:57;99515.22;;;23.02;49.89
71795;BME280;59641;45.188;5.712;2023-05-08T13:13:24;99507.72;;;23.08;49.73
71795;BME280;59641;45.188;5.712;2023-05-08T13:15:51;99509.28;;;23.14;49.83
71795;BME280;59641;45.188;5.712;2023-05-08T13:18:17;99495.50;;;23.19;49.77
71795;BME280;59641;45.188;5.712;2023-05-08T13:20:43;99498.94;;;23.25;49.59
71795;BME280;59641;45.188;5.712;2023-05-08T13:23:09;99489.56;;;23.31;49.76
71795;BME280;59641;45.188;5.712;2023-05-08T13:25:36;99489.75;;;23.34;49.48
71795;BME280;59641;45.188;5.712;2023-05-08T13:28:02;99474.34;;;23.38;49.59
71795;BME280;59641;45.188;5.712;2023-05-08T13:30:28;99478.91;;;23.43;49.64
71795;BME280;59641;45.188;5.712;2023-05-08T13:32:53;99481.03;;;23.46;49.49
71795;BME280;59641;45.188;5.712;2023-05-08T13:35:20;99475.47;;;23.51;49.20
71795;BME280;59641;45.188;5.712;2023-05-08T13:37:46;99467.16;;;23.56;49.09